Geraldton Greenstone Regional Airport
CYGQ : now visible

Airfield :











YOU CAN JOIN US ON...

 
LOGIN :

Register | Disclaimer

   EN    FR    IT 

 









Legend :    VFR   Marginal VFR   IFR   Intensive IFR   Very Intensive IFR
Visi :
Ceiling :
>= 8 km
>= 3000ft
5 to 8 km
1000 to 3000 ft
1500m to 5 km
500 to 1000 ft
800 to 1500m
200 to 500 ft
< 800m
< 200 ft
Symbols :   Thunderstorms  Fog  Heavy snow  Heavy precipitations  Wind > 20 kt






- Airport Elevation : 1144 ft
- IATA code : YGQ


CYGQ - Geraldton Greenstone Regional

CURRENT METAR :
  • 041900Z 11004KT 010V150 15SM OVC043 16/06 A3013 RMK SC8 SLP214 DENSITY ALT 1300FT

EXPIRED METARs :
  • 041800Z 07006KT 010V120 15SM OVC043 15/07 A3015 RMK SC8 SLP220 DENSITY ALT 1200FT
  • 041700Z 32004KT 230V360 15SM OVC036 15/07 A3016 RMK SC8 SLP224 DENSITY ALT 1200FT
  • 041600Z 00000KT 15SM BKN035 15/07 A3017 RMK SC6 SLP226

TAF AMD TAF CYGQ
Valid from the 04 at 14:00 until the 05 at 02:00 UTC


041411Z 0414/0502 34005KT P6SM FEW008 OVC040
TEMPO 0414/0417 BKN008 OVC040
FM041700 01007KT P6SM BKN050
BECMG 0422/0424 03004KT SCT040 RMK NXT FCST BY 042000Z
CZWG FIR / North America



MET'MAP, your aeronautical weather chart ! - Copyright ORBIFLY December 2007 - Disclaimer

ORBIFLY MET'MAP TEAM :

Programming & Development : Alexandra Zaïnal
Concept & original design : Baudouin d'Aumeries
Assistance for programming : Marc-Olivier Méhu
Technical & hardware support : Manuel Goepfert

Contact : metmap@orbifly.com




SOURCES & CREDITS :

   NOAA       Earth
Advisory